sensor_id;sensor_type;location;lat;lon;timestamp;P1;durP1;ratioP1;P2;durP2;ratioP2
79677;SDS011;69145;45.544;10.214;2023-07-29T06:43:22;7.72;;;4.72;;
79677;SDS011;69145;45.544;10.214;2023-07-29T06:45:50;7.50;;;4.85;;
79677;SDS011;69145;45.544;10.214;2023-07-29T08:34:10;8.20;;;5.70;;
79677;SDS011;69145;45.544;10.214;2023-07-29T08:36:41;10.73;;;6.10;;
79677;SDS011;69145;45.544;10.214;2023-07-29T08:42:04;7.93;;;5.53;;
79677;SDS011;69145;45.544;10.214;2023-07-29T08:44:41;11.85;;;5.50;;
79677;SDS011;69145;45.544;10.214;2023-07-29T08:47:08;8.35;;;5.38;;
79677;SDS011;69145;45.544;10.214;2023-07-29T08:49:33;8.23;;;5.47;;
79677;SDS011;69145;45.544;10.214;2023-07-29T08:51:59;9.73;;;6.18;;
79677;SDS011;69145;45.544;10.214;2023-07-29T08:54:26;8.38;;;5.35;;
79677;SDS011;69145;45.544;10.214;2023-07-29T08:56:51;9.43;;;5.78;;
79677;SDS011;69145;45.544;10.214;2023-07-29T08:59:17;10.38;;;5.38;;
79677;SDS011;69145;45.544;10.214;2023-07-29T09:01:44;8.13;;;5.82;;
79677;SDS011;69145;45.544;10.214;2023-07-29T09:04:09;8.23;;;5.57;;
79677;SDS011;69145;45.544;10.214;2023-07-29T09:06:35;8.93;;;5.78;;
79677;SDS011;69145;45.544;10.214;2023-07-29T09:09:03;8.60;;;5.78;;
79677;SDS011;69145;45.544;10.214;2023-07-29T09:11:28;9.85;;;5.40;;
79677;SDS011;69145;45.544;10.214;2023-07-29T09:13:54;8.52;;;5.68;;
79677;SDS011;69145;45.544;10.214;2023-07-29T09:16:20;9.68;;;5.57;;
79677;SDS011;69145;45.544;10.214;2023-07-29T09:18:49;9.07;;;5.88;;
79677;SDS011;69145;45.544;10.214;2023-07-29T09:21:16;10.30;;;5.35;;
79677;SDS011;69145;45.544;10.214;2023-07-29T09:23:43;11.10;;;6.38;;
79677;SDS011;69145;45.544;10.214;2023-07-29T09:26:09;10.02;;;5.35;;
79677;SDS011;69145;45.544;10.214;2023-07-29T09:28:35;9.15;;;5.85;;
79677;SDS011;69145;45.544;10.214;2023-07-29T09:31:02;7.32;;;5.18;;
79677;SDS011;69145;45.544;10.214;2023-07-29T09:33:36;8.90;;;5.93;;
79677;SDS011;69145;45.544;10.214;2023-07-29T09:36:08;8.23;;;5.35;;
79677;SDS011;69145;45.544;10.214;2023-07-29T09:38:34;7.68;;;5.18;;
79677;SDS011;69145;45.544;10.214;2023-07-29T09:41:01;7.72;;;5.38;;
79677;SDS011;69145;45.544;10.214;2023-07-29T09:43:33;9.23;;;5.93;;
79677;SDS011;69145;45.544;10.214;2023-07-29T09:46:03;8.70;;;5.95;;
79677;SDS011;69145;45.544;10.214;2023-07-29T09:48:36;7.22;;;5.80;;
79677;SDS011;69145;45.544;10.214;2023-07-29T09:51:11;9.48;;;6.10;;
79677;SDS011;69145;45.544;10.214;2023-07-29T09:53:42;8.40;;;5.55;;
79677;SDS011;69145;45.544;10.214;2023-07-29T09:56:10;8.43;;;6.15;;
79677;SDS011;69145;45.544;10.214;2023-07-29T09:58:37;9.38;;;6.72;;
79677;SDS011;69145;45.544;10.214;2023-07-29T10:01:06;10.05;;;6.80;;
79677;SDS011;69145;45.544;10.214;2023-07-29T10:03:33;8.10;;;5.90;;
79677;SDS011;69145;45.544;10.214;2023-07-29T10:06:02;8.85;;;5.60;;
79677;SDS011;69145;45.544;10.214;2023-07-29T10:08:29;13.52;;;8.25;;
79677;SDS011;69145;45.544;10.214;2023-07-29T10:10:58;9.50;;;5.93;;
79677;SDS011;69145;45.544;10.214;2023-07-29T10:13:24;10.75;;;5.65;;
79677;SDS011;69145;45.544;10.214;2023-07-29T10:15:51;8.43;;;5.72;;
79677;SDS011;69145;45.544;10.214;2023-07-29T10:18:18;9.30;;;5.35;;
79677;SDS011;69145;45.544;10.214;2023-07-29T10:20:44;8.52;;;5.13;;
79677;SDS011;69145;45.544;10.214;2023-07-29T10:23:11;8.15;;;5.38;;
79677;SDS011;69145;45.544;10.214;2023-07-29T10:25:38;9.88;;;5.82;;
79677;SDS011;69145;45.544;10.214;2023-07-29T10:28:07;10.73;;;6.53;;
79677;SDS011;69145;45.544;10.214;2023-07-29T10:30:33;7.55;;;5.68;;
79677;SDS011;69145;45.544;10.214;2023-07-29T10:33:03;6.70;;;4.35;;
79677;SDS011;69145;45.544;10.214;2023-07-29T10:35:30;8.65;;;4.70;;
79677;SDS011;69145;45.544;10.214;2023-07-29T10:37:58;6.88;;;5.10;;
79677;SDS011;69145;45.544;10.214;2023-07-29T10:40:24;6.25;;;4.90;;
79677;SDS011;69145;45.544;10.214;2023-07-29T10:43:06;6.32;;;4.65;;
79677;SDS011;69145;45.544;10.214;2023-07-29T10:45:37;7.43;;;4.53;;
79677;SDS011;69145;45.544;10.214;2023-07-29T10:50:35;6.57;;;4.10;;
79677;SDS011;69145;45.544;10.214;2023-07-29T10:53:00;7.35;;;4.43;;
79677;SDS011;69145;45.544;10.214;2023-07-29T10:55:27;9.32;;;5.30;;
79677;SDS011;69145;45.544;10.214;2023-07-29T10:58:28;7.07;;;4.40;;
79677;SDS011;69145;45.544;10.214;2023-07-29T11:00:46;7.03;;;4.85;;
79677;SDS011;69145;45.544;10.214;2023-07-29T11:03:12;6.50;;;4.40;;
79677;SDS011;69145;45.544;10.214;2023-07-29T11:05:43;6.15;;;4.18;;
79677;SDS011;69145;45.544;10.214;2023-07-29T11:13:31;7.95;;;4.63;;
79677;SDS011;69145;45.544;10.214;2023-07-29T11:15:58;5.78;;;3.97;;
79677;SDS011;69145;45.544;10.214;2023-07-29T11:18:28;8.15;;;4.88;;
79677;SDS011;69145;45.544;10.214;2023-07-29T11:20:54;12.52;;;4.80;;
79677;SDS011;69145;45.544;10.214;2023-07-29T11:23:28;12.85;;;4.50;;
79677;SDS011;69145;45.544;10.214;2023-07-29T11:25:56;16.02;;;5.28;;
79677;SDS011;69145;45.544;10.214;2023-07-29T11:28:21;9.93;;;4.20;;
79677;SDS011;69145;45.544;10.214;2023-07-29T11:30:47;12.75;;;5.05;;
79677;SDS011;69145;45.544;10.214;2023-07-29T11:33:14;12.25;;;4.78;;
79677;SDS011;69145;45.544;10.214;2023-07-29T11:35:42;7.07;;;3.70;;
79677;SDS011;69145;45.544;10.214;2023-07-29T11:38:07;11.40;;;5.00;;
79677;SDS011;69145;45.544;10.214;2023-07-29T11:40:32;9.50;;;4.38;;
79677;SDS011;69145;45.544;10.214;2023-07-29T11:42:58;9.73;;;4.40;;
79677;SDS011;69145;45.544;10.214;2023-07-29T11:45:23;8.93;;;4.60;;
79677;SDS011;69145;45.544;10.214;2023-07-29T11:47:48;9.32;;;4.50;;
79677;SDS011;69145;45.544;10.214;2023-07-29T11:50:14;5.73;;;4.07;;
79677;SDS011;69145;45.544;10.214;2023-07-29T11:52:44;10.55;;;4.78;;
79677;SDS011;69145;45.544;10.214;2023-07-29T11:55:12;8.32;;;4.80;;
79677;SDS011;69145;45.544;10.214;2023-07-29T11:57:39;7.57;;;4.60;;
79677;SDS011;69145;45.544;10.214;2023-07-29T12:00:08;5.78;;;4.32;;
79677;SDS011;69145;45.544;10.214;2023-07-29T12:02:39;9.40;;;5.95;;
79677;SDS011;69145;45.544;10.214;2023-07-29T12:05:06;8.35;;;5.00;;
79677;SDS011;69145;45.544;10.214;2023-07-29T12:07:33;8.05;;;5.45;;
79677;SDS011;69145;45.544;10.214;2023-07-29T12:09:58;7.38;;;4.57;;
79677;SDS011;69145;45.544;10.214;2023-07-29T12:12:24;11.18;;;5.97;;
79677;SDS011;69145;45.544;10.214;2023-07-29T12:14:49;6.70;;;4.63;;
79677;SDS011;69145;45.544;10.214;2023-07-29T12:17:15;5.97;;;4.27;;
79677;SDS011;69145;45.544;10.214;2023-07-29T12:19:40;6.57;;;4.63;;
79677;SDS011;69145;45.544;10.214;2023-07-29T12:22:07;8.63;;;4.97;;
79677;SDS011;69145;45.544;10.214;2023-07-29T12:24:38;8.77;;;4.97;;
79677;SDS011;69145;45.544;10.214;2023-07-29T12:27:10;7.38;;;5.25;;
79677;SDS011;69145;45.544;10.214;2023-07-29T12:29:40;6.38;;;4.75;;
79677;SDS011;69145;45.544;10.214;2023-07-29T12:32:07;8.38;;;4.65;;
79677;SDS011;69145;45.544;10.214;2023-07-29T12:34:32;9.32;;;5.30;;
79677;SDS011;69145;45.544;10.214;2023-07-29T12:36:58;8.23;;;5.77;;
79677;SDS011;69145;45.544;10.214;2023-07-29T12:39:28;10.43;;;6.43;;
79677;SDS011;69145;45.544;10.214;2023-07-29T12:41:55;7.32;;;5.18;;
79677;SDS011;69145;45.544;10.214;2023-07-29T12:44:25;7.82;;;5.63;;
79677;SDS011;69145;45.544;10.214;2023-07-29T12:46:56;10.07;;;5.53;;
79677;SDS011;69145;45.544;10.214;2023-07-29T12:49:33;10.83;;;5.67;;
79677;SDS011;69145;45.544;10.214;2023-07-29T13:04:55;7.45;;;5.13;;
79677;SDS011;69145;45.544;10.214;2023-07-29T13:07:20;7.82;;;5.18;;
79677;SDS011;69145;45.544;10.214;2023-07-29T13:09:46;8.10;;;5.20;;
79677;SDS011;69145;45.544;10.214;2023-07-29T13:12:11;6.45;;;4.40;;
79677;SDS011;69145;45.544;10.214;2023-07-29T13:14:40;9.20;;;5.53;;
79677;SDS011;69145;45.544;10.214;2023-07-29T13:17:05;6.80;;;4.37;;
79677;SDS011;69145;45.544;10.214;2023-07-29T13:19:30;8.67;;;4.70;;
79677;SDS011;69145;45.544;10.214;2023-07-29T13:21:56;6.32;;;4.82;;
79677;SDS011;69145;45.544;10.214;2023-07-29T13:24:21;7.80;;;4.73;;
79677;SDS011;69145;45.544;10.214;2023-07-29T13:26:46;8.00;;;4.50;;
79677;SDS011;69145;45.544;10.214;2023-07-29T13:29:12;6.80;;;4.10;;
79677;SDS011;69145;45.544;10.214;2023-07-29T13:31:40;6.43;;;4.25;;
79677;SDS011;69145;45.544;10.214;2023-07-29T13:34:06;6.28;;;4.38;;
79677;SDS011;69145;45.544;10.214;2023-07-29T13:36:32;7.07;;;4.07;;
79677;SDS011;69145;45.544;10.214;2023-07-29T13:38:58;6.03;;;4.35;;
79677;SDS011;69145;45.544;10.214;2023-07-29T13:41:23;6.10;;;4.30;;
79677;SDS011;69145;45.544;10.214;2023-07-29T13:43:48;8.20;;;4.80;;
79677;SDS011;69145;45.544;10.214;2023-07-29T13:46:13;6.90;;;4.57;;
79677;SDS011;69145;45.544;10.214;2023-07-29T13:48:39;5.57;;;4.20;;
79677;SDS011;69145;45.544;10.214;2023-07-29T13:51:04;6.05;;;4.00;;
79677;SDS011;69145;45.544;10.214;2023-07-29T13:53:30;6.43;;;4.57;;
79677;SDS011;69145;45.544;10.214;2023-07-29T13:55:55;6.82;;;4.28;;
79677;SDS011;69145;45.544;10.214;2023-07-29T13:58:24;8.93;;;4.32;;
79677;SDS011;69145;45.544;10.214;2023-07-29T14:00:52;8.32;;;4.10;;
79677;SDS011;69145;45.544;10.214;2023-07-29T14:03:20;7.85;;;3.90;;
79677;SDS011;69145;45.544;10.214;2023-07-29T14:05:45;6.13;;;3.80;;
79677;SDS011;69145;45.544;10.214;2023-07-29T14:08:11;6.57;;;4.38;;
79677;SDS011;69145;45.544;10.214;2023-07-29T14:10:36;6.38;;;4.28;;
79677;SDS011;69145;45.544;10.214;2023-07-29T14:13:01;6.53;;;4.27;;
79677;SDS011;69145;45.544;10.214;2023-07-29T14:15:27;5.53;;;4.00;;
79677;SDS011;69145;45.544;10.214;2023-07-29T14:17:53;7.10;;;4.30;;
79677;SDS011;69145;45.544;10.214;2023-07-29T14:20:19;6.22;;;4.47;;
79677;SDS011;69145;45.544;10.214;2023-07-29T14:22:44;10.23;;;5.20;;
79677;SDS011;69145;45.544;10.214;2023-07-29T14:25:10;6.77;;;4.50;;
79677;SDS011;69145;45.544;10.214;2023-07-29T14:27:36;7.05;;;4.72;;
79677;SDS011;69145;45.544;10.214;2023-07-29T14:30:01;7.18;;;4.60;;
79677;SDS011;69145;45.544;10.214;2023-07-29T14:32:27;8.25;;;4.60;;
79677;SDS011;69145;45.544;10.214;2023-07-29T14:34:53;6.03;;;4.35;;
79677;SDS011;69145;45.544;10.214;2023-07-29T14:37:18;7.93;;;4.37;;
79677;SDS011;69145;45.544;10.214;2023-07-29T14:39:44;6.30;;;4.53;;
79677;SDS011;69145;45.544;10.214;2023-07-29T14:42:09;6.63;;;4.47;;
79677;SDS011;69145;45.544;10.214;2023-07-29T14:44:34;6.67;;;4.97;;
79677;SDS011;69145;45.544;10.214;2023-07-29T14:47:00;7.28;;;4.68;;
79677;SDS011;69145;45.544;10.214;2023-07-29T14:49:25;5.85;;;4.43;;
79677;SDS011;69145;45.544;10.214;2023-07-29T14:51:50;8.80;;;4.83;;
79677;SDS011;69145;45.544;10.214;2023-07-29T14:54:16;6.55;;;4.47;;
79677;SDS011;69145;45.544;10.214;2023-07-29T14:56:41;4.93;;;3.90;;
79677;SDS011;69145;45.544;10.214;2023-07-29T14:59:07;7.22;;;4.75;;
79677;SDS011;69145;45.544;10.214;2023-07-29T15:01:32;7.37;;;4.77;;
79677;SDS011;69145;45.544;10.214;2023-07-29T15:03:58;7.22;;;4.72;;
79677;SDS011;69145;45.544;10.214;2023-07-29T15:06:23;5.68;;;4.60;;
79677;SDS011;69145;45.544;10.214;2023-07-29T15:08:49;7.32;;;4.55;;
79677;SDS011;69145;45.544;10.214;2023-07-29T15:11:15;6.13;;;4.65;;
79677;SDS011;69145;45.544;10.214;2023-07-29T15:13:43;6.28;;;4.20;;
79677;SDS011;69145;45.544;10.214;2023-07-29T15:16:08;10.32;;;4.85;;
79677;SDS011;69145;45.544;10.214;2023-07-29T15:18:34;8.67;;;4.40;;
79677;SDS011;69145;45.544;10.214;2023-07-29T15:20:59;6.38;;;4.82;;
79677;SDS011;69145;45.544;10.214;2023-07-29T15:23:27;8.82;;;5.13;;
79677;SDS011;69145;45.544;10.214;2023-07-29T15:25:53;8.70;;;5.30;;
79677;SDS011;69145;45.544;10.214;2023-07-29T15:28:18;8.83;;;4.80;;
79677;SDS011;69145;45.544;10.214;2023-07-29T15:30:52;6.37;;;4.63;;
79677;SDS011;69145;45.544;10.214;2023-07-29T15:33:19;7.20;;;4.70;;
79677;SDS011;69145;45.544;10.214;2023-07-29T15:35:46;9.00;;;5.03;;
79677;SDS011;69145;45.544;10.214;2023-07-29T15:38:16;6.35;;;4.57;;
79677;SDS011;69145;45.544;10.214;2023-07-29T15:40:48;7.85;;;4.88;;
79677;SDS011;69145;45.544;10.214;2023-07-29T15:43:17;8.50;;;4.35;;
79677;SDS011;69145;45.544;10.214;2023-07-29T15:45:43;5.95;;;4.50;;
79677;SDS011;69145;45.544;10.214;2023-07-29T15:48:09;8.32;;;4.47;;
79677;SDS011;69145;45.544;10.214;2023-07-29T15:50:34;6.50;;;4.40;;
79677;SDS011;69145;45.544;10.214;2023-07-29T15:53:00;5.85;;;4.45;;
79677;SDS011;69145;45.544;10.214;2023-07-29T15:55:25;10.60;;;4.97;;
79677;SDS011;69145;45.544;10.214;2023-07-29T15:57:51;7.65;;;4.85;;
79677;SDS011;69145;45.544;10.214;2023-07-29T16:00:16;8.07;;;4.43;;
79677;SDS011;69145;45.544;10.214;2023-07-29T16:02:41;8.13;;;4.20;;
79677;SDS011;69145;45.544;10.214;2023-07-29T16:05:07;7.95;;;4.93;;
79677;SDS011;69145;45.544;10.214;2023-07-29T16:07:32;7.75;;;5.15;;
79677;SDS011;69145;45.544;10.214;2023-07-29T16:09:57;8.53;;;4.87;;
79677;SDS011;69145;45.544;10.214;2023-07-29T16:12:23;7.28;;;4.65;;
79677;SDS011;69145;45.544;10.214;2023-07-29T16:14:49;6.25;;;4.78;;
79677;SDS011;69145;45.544;10.214;2023-07-29T16:17:14;6.82;;;4.80;;
79677;SDS011;69145;45.544;10.214;2023-07-29T16:19:56;7.00;;;4.70;;
79677;SDS011;69145;45.544;10.214;2023-07-29T16:22:22;8.15;;;5.38;;
79677;SDS011;69145;45.544;10.214;2023-07-29T16:24:48;8.02;;;4.75;;
79677;SDS011;69145;45.544;10.214;2023-07-29T16:27:13;6.28;;;4.78;;
79677;SDS011;69145;45.544;10.214;2023-07-29T16:29:39;6.18;;;4.47;;
79677;SDS011;69145;45.544;10.214;2023-07-29T16:32:04;8.00;;;4.83;;
79677;SDS011;69145;45.544;10.214;2023-07-29T16:34:30;8.60;;;5.13;;
79677;SDS011;69145;45.544;10.214;2023-07-29T16:36:55;9.98;;;7.60;;
79677;SDS011;69145;45.544;10.214;2023-07-29T16:39:21;6.83;;;5.27;;
79677;SDS011;69145;45.544;10.214;2023-07-29T16:41:46;8.07;;;5.57;;
79677;SDS011;69145;45.544;10.214;2023-07-29T16:44:11;9.60;;;6.40;;
79677;SDS011;69145;45.544;10.214;2023-07-29T16:46:37;10.07;;;6.73;;
79677;SDS011;69145;45.544;10.214;2023-07-29T16:49:03;11.15;;;6.75;;
79677;SDS011;69145;45.544;10.214;2023-07-29T16:51:28;9.38;;;7.07;;
79677;SDS011;69145;45.544;10.214;2023-07-29T16:53:54;11.23;;;7.07;;
79677;SDS011;69145;45.544;10.214;2023-07-29T16:56:21;9.32;;;6.80;;
79677;SDS011;69145;45.544;10.214;2023-07-29T16:58:46;10.95;;;7.30;;
79677;SDS011;69145;45.544;10.214;2023-07-29T17:01:11;8.35;;;5.95;;
79677;SDS011;69145;45.544;10.214;2023-07-29T17:03:37;10.05;;;5.97;;
79677;SDS011;69145;45.544;10.214;2023-07-29T17:06:02;7.97;;;5.50;;
79677;SDS011;69145;45.544;10.214;2023-07-29T17:08:27;9.35;;;5.57;;
79677;SDS011;69145;45.544;10.214;2023-07-29T17:10:53;7.20;;;5.23;;
79677;SDS011;69145;45.544;10.214;2023-07-29T17:13:18;6.60;;;4.57;;
79677;SDS011;69145;45.544;10.214;2023-07-29T17:15:43;8.27;;;5.70;;
79677;SDS011;69145;45.544;10.214;2023-07-29T17:18:09;8.13;;;4.97;;
79677;SDS011;69145;45.544;10.214;2023-07-29T17:20:34;7.80;;;4.85;;
79677;SDS011;69145;45.544;10.214;2023-07-29T17:22:59;10.03;;;5.13;;
79677;SDS011;69145;45.544;10.214;2023-07-29T17:25:25;7.50;;;4.70;;
79677;SDS011;69145;45.544;10.214;2023-07-29T17:27:51;7.38;;;4.93;;
79677;SDS011;69145;45.544;10.214;2023-07-29T17:30:16;7.47;;;5.15;;
79677;SDS011;69145;45.544;10.214;2023-07-29T17:32:42;9.57;;;5.03;;
79677;SDS011;69145;45.544;10.214;2023-07-29T17:35:07;7.93;;;4.75;;
79677;SDS011;69145;45.544;10.214;2023-07-29T17:37:33;8.18;;;4.82;;
79677;SDS011;69145;45.544;10.214;2023-07-29T17:39:59;8.85;;;4.95;;
79677;SDS011;69145;45.544;10.214;2023-07-29T17:42:25;6.30;;;4.47;;
79677;SDS011;69145;45.544;10.214;2023-07-29T17:44:50;7.43;;;5.28;;
79677;SDS011;69145;45.544;10.214;2023-07-29T17:47:16;8.13;;;5.20;;
79677;SDS011;69145;45.544;10.214;2023-07-29T17:49:43;11.20;;;5.05;;
79677;SDS011;69145;45.544;10.214;2023-07-29T17:52:08;9.90;;;5.63;;
79677;SDS011;69145;45.544;10.214;2023-07-29T17:54:34;12.27;;;4.85;;
79677;SDS011;69145;45.544;10.214;2023-07-29T17:57:08;12.18;;;8.07;;
79677;SDS011;69145;45.544;10.214;2023-07-29T17:59:34;7.80;;;5.60;;
79677;SDS011;69145;45.544;10.214;2023-07-29T18:01:59;6.63;;;4.90;;
79677;SDS011;69145;45.544;10.214;2023-07-29T18:04:25;7.50;;;5.20;;
79677;SDS011;69145;45.544;10.214;2023-07-29T18:06:50;6.78;;;4.80;;
79677;SDS011;69145;45.544;10.214;2023-07-29T18:09:16;7.43;;;5.35;;
79677;SDS011;69145;45.544;10.214;2023-07-29T18:11:44;7.10;;;4.65;;
79677;SDS011;69145;45.544;10.214;2023-07-29T18:14:34;8.13;;;5.07;;
79677;SDS011;69145;45.544;10.214;2023-07-29T18:17:00;6.00;;;4.78;;
79677;SDS011;69145;45.544;10.214;2023-07-29T18:19:25;7.85;;;5.13;;
79677;SDS011;69145;45.544;10.214;2023-07-29T18:21:54;7.03;;;4.72;;
79677;SDS011;69145;45.544;10.214;2023-07-29T18:24:20;8.70;;;5.07;;
79677;SDS011;69145;45.544;10.214;2023-07-29T18:26:46;7.72;;;4.93;;
79677;SDS011;69145;45.544;10.214;2023-07-29T18:29:11;6.85;;;5.00;;
79677;SDS011;69145;45.544;10.214;2023-07-29T18:31:37;6.85;;;4.60;;
79677;SDS011;69145;45.544;10.214;2023-07-29T18:34:02;7.35;;;5.00;;
79677;SDS011;69145;45.544;10.214;2023-07-29T18:36:28;7.05;;;4.60;;
79677;SDS011;69145;45.544;10.214;2023-07-29T18:38:55;5.90;;;4.20;;
79677;SDS011;69145;45.544;10.214;2023-07-29T18:41:22;5.82;;;4.68;;
79677;SDS011;69145;45.544;10.214;2023-07-29T18:44:13;6.57;;;5.10;;
79677;SDS011;69145;45.544;10.214;2023-07-29T18:46:51;7.45;;;5.20;;
79677;SDS011;69145;45.544;10.214;2023-07-29T18:49:34;7.38;;;4.97;;
79677;SDS011;69145;45.544;10.214;2023-07-29T18:55:19;7.78;;;4.47;;
79677;SDS011;69145;45.544;10.214;2023-07-29T19:17:35;7.25;;;4.82;;
79677;SDS011;69145;45.544;10.214;2023-07-29T19:33:43;9.75;;;6.05;;
79677;SDS011;69145;45.544;10.214;2023-07-29T19:40:07;9.50;;;6.70;;
79677;SDS011;69145;45.544;10.214;2023-07-29T19:53:40;9.07;;;5.55;;
79677;SDS011;69145;45.544;10.214;2023-07-29T20:03:01;7.75;;;6.03;;
79677;SDS011;69145;45.544;10.214;2023-07-29T20:09:54;10.00;;;5.97;;
79677;SDS011;69145;45.544;10.214;2023-07-29T20:21:53;7.75;;;5.28;;
79677;SDS011;69145;45.544;10.214;2023-07-29T20:36:29;7.43;;;5.10;;
79677;SDS011;69145;45.544;10.214;2023-07-29T20:53:25;7.03;;;5.05;;
79677;SDS011;69145;45.544;10.214;2023-07-29T20:56:44;9.35;;;6.07;;
